createdAt,value
2023-03-02T00:01:50.072Z,15.93
2023-03-02T00:04:22.410Z,14.47
2023-03-02T00:06:53.115Z,12.90
2023-03-02T00:09:21.593Z,13.17
2023-03-02T00:11:52.961Z,11.53
2023-03-02T00:14:21.339Z,12.50
2023-03-02T00:16:49.839Z,12.70
2023-03-02T00:19:18.189Z,11.87
2023-03-02T00:21:46.531Z,12.10
2023-03-02T00:24:15.837Z,12.10
2023-03-02T00:26:44.220Z,11.43
2023-03-02T00:29:14.067Z,12.40
2023-03-02T00:31:42.575Z,11.00
2023-03-02T00:34:11.011Z,13.17
2023-03-02T00:36:40.134Z,11.40
2023-03-02T00:39:08.882Z,13.57
2023-03-02T00:41:37.247Z,11.80
2023-03-02T00:44:05.824Z,11.20
2023-03-02T00:46:35.833Z,10.40
2023-03-02T00:49:04.475Z,11.53
2023-03-02T00:51:32.845Z,10.43
2023-03-02T00:54:02.740Z,11.17
2023-03-02T00:56:31.760Z,9.53
2023-03-02T00:59:00.304Z,9.93
2023-03-02T01:01:28.627Z,10.23
2023-03-02T01:03:58.531Z,11.60
2023-03-02T01:06:27.384Z,10.63
2023-03-02T01:08:55.705Z,10.97
2023-03-02T01:11:24.712Z,10.67
2023-03-02T01:13:53.142Z,10.63
2023-03-02T01:16:21.538Z,10.13
2023-03-02T01:18:50.544Z,10.33
2023-03-02T01:21:21.097Z,11.23
2023-03-02T01:23:49.397Z,11.27
2023-03-02T01:26:17.686Z,11.07
2023-03-02T01:28:46.544Z,11.27
2023-03-02T01:31:15.050Z,11.90
2023-03-02T01:33:43.458Z,11.40
2023-03-02T01:36:11.848Z,9.80
2023-03-02T01:38:41.671Z,10.40
2023-03-02T01:41:10.590Z,11.43
2023-03-02T01:43:39.121Z,9.20
2023-03-02T01:46:14.408Z,10.10
2023-03-02T01:48:48.936Z,10.10
2023-03-02T01:51:20.536Z,10.20
2023-03-02T01:53:55.484Z,10.00
2023-03-02T01:56:28.674Z,8.67
2023-03-02T01:59:02.813Z,10.47
2023-03-02T02:01:33.665Z,10.20
2023-03-02T02:04:03.075Z,9.33
2023-03-02T02:06:36.262Z,10.13
2023-03-02T02:09:09.138Z,9.70
2023-03-02T02:11:37.668Z,9.63
2023-03-02T02:14:06.093Z,8.90
2023-03-02T02:16:36.668Z,9.70
2023-03-02T02:19:11.574Z,10.57
2023-03-02T02:21:40.481Z,8.83
2023-03-02T02:24:13.673Z,10.03
2023-03-02T02:26:47.391Z,11.00
2023-03-02T02:29:22.869Z,11.10
2023-03-02T02:31:56.786Z,9.70
2023-03-02T02:34:30.612Z,10.27
2023-03-02T02:37:04.721Z,9.40
2023-03-02T02:39:36.556Z,10.27
2023-03-02T02:42:13.385Z,11.03
2023-03-02T02:44:41.799Z,11.20
2023-03-02T02:47:18.201Z,10.90
2023-03-02T02:49:48.023Z,8.60
2023-03-02T02:52:19.144Z,11.80
2023-03-02T02:54:50.785Z,12.30
2023-03-02T02:57:21.817Z,10.97
2023-03-02T02:59:52.992Z,11.70
2023-03-02T03:02:24.789Z,13.73
2023-03-02T03:05:02.615Z,10.53
2023-03-02T03:07:33.300Z,11.00
2023-03-02T03:10:06.124Z,11.10
2023-03-02T03:12:36.751Z,11.20
2023-03-02T03:15:06.660Z,12.00
2023-03-02T03:17:35.197Z,10.77
2023-03-02T03:20:07.941Z,10.83
2023-03-02T03:22:37.649Z,12.37
2023-03-02T03:25:06.749Z,12.10
2023-03-02T03:27:36.859Z,12.50
2023-03-02T03:30:05.730Z,9.00
2023-03-02T03:32:35.568Z,12.67
2023-03-02T03:35:08.808Z,13.00
2023-03-02T03:37:37.529Z,11.60
2023-03-02T03:40:07.083Z,12.07
2023-03-02T03:42:37.894Z,13.50
2023-03-02T03:45:08.672Z,12.20
2023-03-02T03:47:37.787Z,12.20
2023-03-02T03:50:06.836Z,12.03
2023-03-02T03:52:35.426Z,12.80
2023-03-02T03:55:04.250Z,12.27
2023-03-02T03:57:32.585Z,14.50
2023-03-02T04:00:02.385Z,12.33
2023-03-02T04:02:30.843Z,11.87
2023-03-02T04:05:06.359Z,13.20
2023-03-02T04:07:35.219Z,12.97
2023-03-02T04:10:04.687Z,13.40
2023-03-02T04:12:33.855Z,13.07
2023-03-02T04:15:03.845Z,12.20
2023-03-02T04:17:32.239Z,12.37
2023-03-02T04:20:00.832Z,12.23
2023-03-02T04:22:29.252Z,13.60
2023-03-02T04:24:57.716Z,12.20
2023-03-02T04:27:26.495Z,12.47
2023-03-02T04:29:54.797Z,12.57
2023-03-02T04:32:24.558Z,12.27
2023-03-02T04:34:53.090Z,11.97
2023-03-02T04:37:21.409Z,11.80
2023-03-02T04:39:51.720Z,14.13
2023-03-02T04:42:20.204Z,14.47
2023-03-02T04:44:48.884Z,14.53
2023-03-02T04:47:17.303Z,13.60
2023-03-02T04:49:47.092Z,13.40
2023-03-02T04:52:15.515Z,12.60
2023-03-02T04:54:43.828Z,12.80
2023-03-02T04:57:12.196Z,13.50
2023-03-02T04:59:40.546Z,12.80
2023-03-02T05:02:09.130Z,11.67
2023-03-02T05:04:37.484Z,12.70
2023-03-02T05:07:07.293Z,13.30
2023-03-02T05:09:35.776Z,13.67
2023-03-02T05:12:04.255Z,15.03
2023-03-02T05:14:33.033Z,13.47
2023-03-02T05:17:01.327Z,14.30
2023-03-02T05:19:29.879Z,13.70
2023-03-02T05:21:58.302Z,13.60
2023-03-02T05:24:28.453Z,12.17
2023-03-02T05:26:56.844Z,13.30
2023-03-02T05:29:25.150Z,12.80
2023-03-02T05:31:53.572Z,14.37
2023-03-02T05:34:22.363Z,13.97
2023-03-02T05:36:50.748Z,12.90
2023-03-02T05:39:19.038Z,13.10
2023-03-02T05:41:48.909Z,11.53
2023-03-02T05:44:17.233Z,13.40
2023-03-02T05:46:45.684Z,12.27
2023-03-02T05:49:14.077Z,14.40
2023-03-02T05:51:42.383Z,14.17
2023-03-02T05:54:10.904Z,13.17
2023-03-02T05:56:39.215Z,13.80
2023-03-02T05:59:09.331Z,12.93
2023-03-02T06:01:38.582Z,13.13
2023-03-02T06:04:07.310Z,13.17
2023-03-02T06:06:35.970Z,12.70
2023-03-02T06:09:04.560Z,12.37
2023-03-02T06:11:32.980Z,12.43
2023-03-02T06:14:01.259Z,13.40
2023-03-02T06:16:31.850Z,14.20
2023-03-02T06:19:00.465Z,13.87
2023-03-02T06:21:28.913Z,12.70
2023-03-02T06:23:57.263Z,12.73
2023-03-02T06:26:25.770Z,13.50
2023-03-02T06:28:54.264Z,13.80
2023-03-02T06:31:22.968Z,14.70
2023-03-02T06:33:52.872Z,16.47
2023-03-02T06:36:21.299Z,15.60
2023-03-02T06:38:49.866Z,15.50
2023-03-02T06:41:18.349Z,13.70
2023-03-02T06:43:46.732Z,14.53
2023-03-02T06:46:15.124Z,14.60
2023-03-02T06:48:43.516Z,14.73
2023-03-02T06:51:13.942Z,15.30
2023-03-02T06:53:42.330Z,15.77
2023-03-02T06:56:11.071Z,15.60
2023-03-02T06:58:39.395Z,15.87
2023-03-02T07:01:09.117Z,16.50
2023-03-02T07:03:37.697Z,15.23
2023-03-02T07:06:06.737Z,15.80
2023-03-02T07:08:36.868Z,15.27
2023-03-02T07:11:07.741Z,14.87
2023-03-02T07:13:38.079Z,14.70
2023-03-02T07:16:10.693Z,17.30
2023-03-02T07:18:39.338Z,15.60
2023-03-02T07:21:07.805Z,15.30
2023-03-02T07:23:37.813Z,21.97
2023-03-02T07:26:08.969Z,18.60
2023-03-02T07:28:39.593Z,16.30
2023-03-02T07:31:08.733Z,16.33
2023-03-02T07:33:37.851Z,15.10
2023-03-02T07:36:07.437Z,15.67
2023-03-02T07:38:38.872Z,17.23
2023-03-02T07:41:11.234Z,15.90
2023-03-02T07:43:40.028Z,19.67
2023-03-02T07:46:08.442Z,16.27
2023-03-02T07:48:36.930Z,16.90
2023-03-02T07:51:07.409Z,16.60
2023-03-02T07:53:37.159Z,15.93
2023-03-02T07:56:11.582Z,16.40
2023-03-02T07:58:40.263Z,16.80
2023-03-02T08:01:08.969Z,16.63
2023-03-02T08:03:37.535Z,16.07
2023-03-02T08:06:07.713Z,17.00
2023-03-02T08:08:38.338Z,17.80
2023-03-02T08:11:07.850Z,16.10
2023-03-02T08:13:36.240Z,16.27
2023-03-02T08:16:06.718Z,16.23
2023-03-02T08:18:36.021Z,15.80
2023-03-02T08:21:04.497Z,17.50
2023-03-02T08:23:32.908Z,15.47
2023-03-02T08:26:02.666Z,15.50
2023-03-02T08:28:31.090Z,16.00
2023-03-02T08:31:00.707Z,14.83
2023-03-02T08:33:30.340Z,17.20
2023-03-02T08:36:00.490Z,16.20
2023-03-02T08:38:30.084Z,17.17
2023-03-02T08:40:58.844Z,15.30
2023-03-02T08:43:28.526Z,15.33
2023-03-02T08:45:57.984Z,15.60
2023-03-02T08:48:27.710Z,16.17
2023-03-02T08:50:58.182Z,15.30
2023-03-02T08:53:27.409Z,16.33
2023-03-02T08:55:55.683Z,15.87
2023-03-02T08:58:24.405Z,15.00
2023-03-02T09:00:54.214Z,15.63
2023-03-02T09:03:22.625Z,14.60
2023-03-02T09:05:51.220Z,15.40
2023-03-02T09:08:19.495Z,17.53
2023-03-02T09:10:47.762Z,15.23
2023-03-02T09:13:16.097Z,15.60
2023-03-02T09:15:44.420Z,14.17
2023-03-02T09:18:14.262Z,17.70
2023-03-02T09:20:42.552Z,15.27
2023-03-02T09:23:12.590Z,14.17
2023-03-02T09:25:40.898Z,18.33
2023-03-02T09:28:09.653Z,13.67
2023-03-02T09:30:38.050Z,12.50
2023-03-02T09:33:06.460Z,12.97
2023-03-02T09:35:36.332Z,12.70
2023-03-02T09:38:04.761Z,12.60
2023-03-02T09:40:34.775Z,13.00
2023-03-02T09:43:19.540Z,11.50
2023-03-02T09:46:09.737Z,13.47
2023-03-02T09:48:46.972Z,12.90
2023-03-02T09:51:33.380Z,14.53
2023-03-02T09:54:08.194Z,12.57
2023-03-02T09:56:41.029Z,13.73
2023-03-02T09:59:21.469Z,14.30
2023-03-02T10:01:55.618Z,14.77
2023-03-02T10:04:28.997Z,13.97
2023-03-02T10:07:07.538Z,14.83
2023-03-02T10:09:35.901Z,15.50
2023-03-02T10:12:23.416Z,14.90
2023-03-02T10:14:58.225Z,16.60
2023-03-02T10:17:47.708Z,15.80
2023-03-02T10:20:22.801Z,14.97
2023-03-02T10:22:57.991Z,15.17
2023-03-02T10:25:37.732Z,15.53
2023-03-02T10:28:17.924Z,17.20
2023-03-02T10:30:47.488Z,15.87
2023-03-02T10:33:19.119Z,13.90
2023-03-02T10:35:49.644Z,12.20
2023-03-02T10:38:21.155Z,13.67
2023-03-02T10:40:53.254Z,17.50
2023-03-02T10:43:31.401Z,15.97
2023-03-02T10:46:01.620Z,14.37
2023-03-02T10:48:30.065Z,18.97
2023-03-02T10:51:00.620Z,14.80
2023-03-02T10:53:30.432Z,13.40
2023-03-02T10:55:58.714Z,13.80
2023-03-02T10:58:31.149Z,14.40
2023-03-02T11:01:02.254Z,13.03
2023-03-02T11:03:31.107Z,12.00
2023-03-02T11:06:00.611Z,13.53
2023-03-02T11:08:31.867Z,12.33
2023-03-02T11:11:03.332Z,13.47
2023-03-02T11:13:33.633Z,12.90
2023-03-02T11:16:03.427Z,13.30
2023-03-02T11:18:38.425Z,13.10
2023-03-02T11:21:10.312Z,14.37
2023-03-02T11:23:53.709Z,13.23
2023-03-02T11:26:26.041Z,13.93
2023-03-02T11:29:02.293Z,12.70
2023-03-02T11:31:37.702Z,14.20
2023-03-02T11:34:44.229Z,14.40
2023-03-02T11:37:19.898Z,13.73
2023-03-02T11:40:02.058Z,14.90
2023-03-02T11:42:33.383Z,19.77
2023-03-02T11:45:05.482Z,14.00
2023-03-02T11:47:35.098Z,17.13
2023-03-02T11:50:08.228Z,17.27
2023-03-02T11:52:41.006Z,17.47
2023-03-02T11:55:19.776Z,13.90
2023-03-02T11:57:51.335Z,16.73
2023-03-02T12:00:29.191Z,13.17
2023-03-02T12:03:06.464Z,14.07
2023-03-02T12:05:37.004Z,13.93
2023-03-02T12:08:08.011Z,15.70
2023-03-02T12:10:41.790Z,18.33
2023-03-02T12:13:18.698Z,14.50
2023-03-02T12:15:48.544Z,15.03
2023-03-02T12:18:46.501Z,14.20
2023-03-02T12:21:17.839Z,14.10
2023-03-02T12:24:04.149Z,12.13
2023-03-02T12:26:38.654Z,15.27
2023-03-02T12:29:23.950Z,11.70
2023-03-02T12:31:54.715Z,12.63
2023-03-02T12:34:37.808Z,12.70
2023-03-02T12:37:14.232Z,13.00
2023-03-02T12:40:04.939Z,13.97
2023-03-02T12:42:50.738Z,12.47
2023-03-02T12:45:33.253Z,14.60
2023-03-02T12:48:06.540Z,14.93
2023-03-02T12:50:40.915Z,14.60
2023-03-02T12:53:18.609Z,13.70
2023-03-02T12:55:47.240Z,13.40
2023-03-02T12:58:21.598Z,13.37
2023-03-02T13:00:54.656Z,12.97
2023-03-02T13:03:23.124Z,12.97
2023-03-02T13:05:51.416Z,14.40
2023-03-02T13:08:24.380Z,14.03
2023-03-02T13:10:54.823Z,14.40
2023-03-02T13:13:27.553Z,13.90
2023-03-02T13:15:57.999Z,13.23
2023-03-02T13:18:31.906Z,14.13
2023-03-02T13:21:01.179Z,13.73
2023-03-02T13:23:30.997Z,12.80
2023-03-02T13:26:01.364Z,13.03
2023-03-02T13:28:34.024Z,12.90
2023-03-02T13:31:05.616Z,12.27
2023-03-02T13:33:36.096Z,13.03
2023-03-02T13:36:04.628Z,14.80
2023-03-02T13:38:37.836Z,15.80
2023-03-02T13:41:06.566Z,12.90
2023-03-02T13:43:40.841Z,20.40
2023-03-02T13:46:31.542Z,12.13
2023-03-02T13:49:11.238Z,22.83
2023-03-02T13:51:42.534Z,14.50
2023-03-02T13:54:22.536Z,15.33
2023-03-02T13:56:52.552Z,13.33
2023-03-02T13:59:23.737Z,10.80
2023-03-02T14:01:52.606Z,13.77
2023-03-02T14:04:23.587Z,12.80
2023-03-02T14:06:54.470Z,19.13
2023-03-02T14:09:23.436Z,14.73
2023-03-02T14:11:54.672Z,11.40
2023-03-02T14:14:28.017Z,13.83
2023-03-02T14:16:56.366Z,9.80
2023-03-02T14:19:24.651Z,10.50
2023-03-02T14:21:53.056Z,9.60
2023-03-02T14:24:21.856Z,9.83
2023-03-02T14:26:50.973Z,9.57
2023-03-02T14:29:27.472Z,10.07
2023-03-02T14:31:56.659Z,9.20
2023-03-02T14:34:25.186Z,9.17
2023-03-02T14:36:55.882Z,9.60
2023-03-02T14:39:33.567Z,9.40
2023-03-02T14:42:01.917Z,8.87
2023-03-02T14:44:31.711Z,10.00
2023-03-02T14:46:59.986Z,9.20
2023-03-02T14:49:29.882Z,8.17
2023-03-02T14:52:02.587Z,9.87
2023-03-02T14:54:37.288Z,9.33
2023-03-02T14:57:08.148Z,9.60
2023-03-02T14:59:37.880Z,10.90
2023-03-02T15:02:15.876Z,8.47
2023-03-02T15:04:55.980Z,9.23
2023-03-02T15:07:25.696Z,8.67
2023-03-02T15:09:54.033Z,8.80
2023-03-02T15:12:22.548Z,8.60
2023-03-02T15:14:52.313Z,9.60
2023-03-02T15:17:20.675Z,9.30
2023-03-02T15:19:49.045Z,8.90
2023-03-02T15:22:17.948Z,8.73
2023-03-02T15:24:46.307Z,8.63
2023-03-02T15:27:14.590Z,9.10
2023-03-02T15:29:45.258Z,9.03
2023-03-02T15:32:15.422Z,10.43
2023-03-02T15:34:44.206Z,9.67
2023-03-02T15:37:13.023Z,10.50
2023-03-02T15:39:41.449Z,9.20
2023-03-02T15:42:10.789Z,8.93
2023-03-02T15:44:40.326Z,10.70
2023-03-02T15:47:08.644Z,9.60
2023-03-02T15:49:38.544Z,10.97
2023-03-02T15:52:07.665Z,10.43
2023-03-02T15:54:36.003Z,11.10
2023-03-02T15:57:04.285Z,9.23
2023-03-02T15:59:34.272Z,10.43
2023-03-02T16:02:02.610Z,10.80
2023-03-02T16:04:32.664Z,9.53
2023-03-02T16:07:02.612Z,10.90
2023-03-02T16:09:31.542Z,11.60
2023-03-02T16:11:59.955Z,11.80
2023-03-02T16:14:28.235Z,9.90
2023-03-02T16:16:56.512Z,11.20
2023-03-02T16:19:24.881Z,9.90
2023-03-02T16:21:53.223Z,9.30
2023-03-02T16:24:23.004Z,9.87
2023-03-02T16:26:54.167Z,9.87
2023-03-02T16:29:22.764Z,9.50
2023-03-02T16:31:51.601Z,10.63
2023-03-02T16:34:19.961Z,10.30
2023-03-02T16:36:48.293Z,10.00
2023-03-02T16:39:16.848Z,11.67
2023-03-02T16:41:47.223Z,10.30
2023-03-02T16:44:16.247Z,9.03
2023-03-02T16:46:44.885Z,8.50
2023-03-02T16:49:14.496Z,10.13
2023-03-02T16:51:43.645Z,10.30
2023-03-02T16:54:15.251Z,9.73
2023-03-02T16:56:47.404Z,11.10
2023-03-02T16:59:18.852Z,11.23
2023-03-02T17:01:47.356Z,9.50
2023-03-02T17:04:18.489Z,10.63
2023-03-02T17:07:03.114Z,11.57
2023-03-02T17:09:32.576Z,12.30
2023-03-02T17:12:01.077Z,12.30
2023-03-02T17:14:31.089Z,11.47
2023-03-02T17:16:59.470Z,11.90
2023-03-02T17:19:29.614Z,12.73
2023-03-02T17:21:58.667Z,11.70
2023-03-02T17:24:27.479Z,11.03
2023-03-02T17:26:56.056Z,11.53
2023-03-02T17:29:24.633Z,10.40
2023-03-02T17:31:54.486Z,10.60
2023-03-02T17:34:23.172Z,10.47
2023-03-02T17:36:51.528Z,12.30
2023-03-02T17:39:19.793Z,13.10
2023-03-02T17:41:48.172Z,15.77
2023-03-02T17:44:16.570Z,12.00
2023-03-02T17:46:46.146Z,10.83
2023-03-02T17:49:15.853Z,11.50
2023-03-02T17:51:44.758Z,11.30
2023-03-02T17:54:13.205Z,13.73
2023-03-02T17:56:41.653Z,11.73
2023-03-02T17:59:10.055Z,11.90
2023-03-02T18:01:38.519Z,10.83
2023-03-02T18:04:07.100Z,15.20
2023-03-02T18:06:37.003Z,14.20
2023-03-02T18:09:05.551Z,10.67
2023-03-02T18:11:35.257Z,13.10
2023-03-02T18:14:03.614Z,13.27
2023-03-02T18:16:34.115Z,11.17
2023-03-02T18:19:02.720Z,11.40
2023-03-02T18:21:31.179Z,12.40
2023-03-02T18:24:00.945Z,10.63
2023-03-02T18:26:29.420Z,10.93
2023-03-02T18:28:57.743Z,11.43
2023-03-02T18:31:26.268Z,10.80
2023-03-02T18:33:54.742Z,10.27
2023-03-02T18:36:23.107Z,9.90
2023-03-02T18:38:53.114Z,10.60
2023-03-02T18:41:24.571Z,11.17
2023-03-02T18:43:53.413Z,11.67
2023-03-02T18:46:24.500Z,12.20
2023-03-02T18:48:54.118Z,12.03
2023-03-02T18:51:24.461Z,12.57
2023-03-02T18:53:53.280Z,11.93
2023-03-02T18:56:23.633Z,12.90
2023-03-02T18:58:52.084Z,12.30
2023-03-02T19:01:20.988Z,12.37
2023-03-02T19:03:50.197Z,14.20
2023-03-02T19:06:20.598Z,13.03
2023-03-02T19:08:49.628Z,11.50
2023-03-02T19:11:18.024Z,12.63
2023-03-02T19:13:47.828Z,11.70
2023-03-02T19:16:18.380Z,12.33
2023-03-02T19:18:46.918Z,12.20
2023-03-02T19:21:15.213Z,11.87
2023-03-02T19:23:45.567Z,11.97
2023-03-02T19:26:14.838Z,11.87
2023-03-02T19:28:43.187Z,13.80
2023-03-02T19:31:13.882Z,10.93
2023-03-02T19:33:43.286Z,12.50
2023-03-02T19:36:12.464Z,12.03
2023-03-02T19:38:42.920Z,10.90
2023-03-02T19:41:14.269Z,12.23
2023-03-02T19:43:42.929Z,10.77
2023-03-02T19:46:13.018Z,12.50
2023-03-02T19:48:42.113Z,13.13
2023-03-02T19:51:12.099Z,12.70
2023-03-02T19:53:41.361Z,12.93
2023-03-02T19:56:12.870Z,12.80
2023-03-02T19:58:47.588Z,12.20
2023-03-02T20:01:21.982Z,12.07
2023-03-02T20:03:51.886Z,11.57
2023-03-02T20:06:21.029Z,11.67
2023-03-02T20:08:49.874Z,13.70
2023-03-02T20:11:18.601Z,11.63
2023-03-02T20:13:48.333Z,11.00
2023-03-02T20:16:19.577Z,10.47
2023-03-02T20:18:47.934Z,10.67
2023-03-02T20:21:16.318Z,11.13
2023-03-02T20:23:44.700Z,10.90
2023-03-02T20:26:13.631Z,11.03
2023-03-02T20:28:42.506Z,11.13
2023-03-02T20:31:13.072Z,10.03
2023-03-02T20:33:46.479Z,13.10
2023-03-02T20:36:16.275Z,11.67
2023-03-02T20:38:47.161Z,12.00
2023-03-02T20:41:16.266Z,11.13
2023-03-02T20:43:45.249Z,11.40
2023-03-02T20:46:20.353Z,11.53
2023-03-02T20:48:50.184Z,9.50
2023-03-02T20:51:18.583Z,10.27
2023-03-02T20:53:47.221Z,10.60
2023-03-02T20:56:17.379Z,10.17
2023-03-02T20:58:47.150Z,11.27
2023-03-02T21:01:17.450Z,11.60
2023-03-02T21:03:46.546Z,10.23
2023-03-02T21:06:17.088Z,11.10
2023-03-02T21:08:47.816Z,10.57
2023-03-02T21:11:18.865Z,10.20
2023-03-02T21:13:48.989Z,10.40
2023-03-02T21:16:19.334Z,10.57
2023-03-02T21:18:47.927Z,10.27
2023-03-02T21:21:20.172Z,9.17
2023-03-02T21:23:51.647Z,9.93
2023-03-02T21:26:20.386Z,9.87
2023-03-02T21:28:49.421Z,9.17
2023-03-02T21:31:19.854Z,9.20
2023-03-02T21:33:49.765Z,10.50
2023-03-02T21:36:22.566Z,9.30
2023-03-02T21:38:51.605Z,9.50
2023-03-02T21:41:20.432Z,9.83
2023-03-02T21:43:49.266Z,10.43
2023-03-02T21:46:19.911Z,10.37
2023-03-02T21:48:49.524Z,9.23
2023-03-02T21:51:19.698Z,9.63
2023-03-02T21:53:48.280Z,9.97
2023-03-02T21:56:20.654Z,10.63
2023-03-02T21:58:52.843Z,11.10
2023-03-02T22:01:21.797Z,11.27
2023-03-02T22:03:50.373Z,10.80
2023-03-02T22:06:22.788Z,12.83
2023-03-02T22:08:52.460Z,12.73
2023-03-02T22:11:23.313Z,11.47
2023-03-02T22:13:52.419Z,9.90
2023-03-02T22:16:22.023Z,9.70
2023-03-02T22:18:54.820Z,10.53
2023-03-02T22:21:30.248Z,9.87
2023-03-02T22:24:07.470Z,10.23
2023-03-02T22:26:40.780Z,9.57
2023-03-02T22:29:15.711Z,9.73
2023-03-02T22:31:47.332Z,9.40
2023-03-02T22:34:20.109Z,8.43
2023-03-02T22:37:12.760Z,8.63
2023-03-02T22:39:42.402Z,8.90
2023-03-02T22:42:15.042Z,8.30
2023-03-02T22:44:45.031Z,9.40
2023-03-02T22:47:17.901Z,9.90
2023-03-02T22:49:46.620Z,9.20
2023-03-02T22:52:19.233Z,8.13
2023-03-02T22:54:47.589Z,8.57
2023-03-02T22:57:29.385Z,7.87
2023-03-02T23:00:30.250Z,9.23
2023-03-02T23:02:58.903Z,8.10
2023-03-02T23:05:29.598Z,8.40
2023-03-02T23:08:21.323Z,8.10
2023-03-02T23:10:50.760Z,7.90
2023-03-02T23:13:21.896Z,7.43
2023-03-02T23:15:52.565Z,7.40
2023-03-02T23:18:24.762Z,8.10
2023-03-02T23:20:53.889Z,8.03
2023-03-02T23:23:25.456Z,8.83
2023-03-02T23:25:54.192Z,8.07
2023-03-02T23:28:22.661Z,9.17
2023-03-02T23:30:51.310Z,8.67
2023-03-02T23:33:19.681Z,7.77
2023-03-02T23:35:48.396Z,8.80
2023-03-02T23:38:16.885Z,8.30
2023-03-02T23:40:46.622Z,8.33
2023-03-02T23:43:14.997Z,8.83
2023-03-02T23:45:43.482Z,7.80
2023-03-02T23:48:11.728Z,9.07
2023-03-02T23:50:40.078Z,9.43
2023-03-02T23:53:08.389Z,8.27
2023-03-02T23:55:37.607Z,8.40
2023-03-02T23:58:07.324Z,8.23
